createdAt,value
2022-10-09T00:01:06.949Z,5.70
2022-10-09T00:03:34.099Z,5.70
2022-10-09T00:09:55.420Z,5.60
2022-10-09T00:12:22.148Z,5.60
2022-10-09T00:14:48.815Z,5.50
2022-10-09T00:17:15.488Z,5.40
2022-10-09T00:19:42.216Z,5.40
2022-10-09T00:22:09.012Z,5.40
2022-10-09T00:24:35.968Z,5.40
2022-10-09T00:27:02.632Z,5.40
2022-10-09T00:29:29.262Z,5.40
2022-10-09T00:31:55.878Z,5.40
2022-10-09T00:34:22.576Z,5.40
2022-10-09T00:36:49.254Z,5.30
2022-10-09T00:39:15.918Z,5.30
2022-10-09T00:41:42.688Z,5.30
2022-10-09T00:44:27.864Z,5.30
2022-10-09T00:46:54.658Z,5.30
2022-10-09T00:49:25.457Z,5.40
2022-10-09T00:51:54.238Z,5.50
2022-10-09T00:54:22.515Z,5.60
2022-10-09T00:56:49.668Z,5.60
2022-10-09T00:59:17.542Z,5.70
2022-10-09T01:01:45.049Z,5.80
2022-10-09T01:04:12.198Z,5.90
2022-10-09T01:06:38.905Z,6.00
2022-10-09T01:09:09.236Z,6.10
2022-10-09T01:11:43.941Z,6.20
2022-10-09T01:14:16.666Z,6.40
2022-10-09T01:17:02.130Z,6.40
2022-10-09T01:19:40.997Z,6.50
2022-10-09T01:22:21.208Z,6.50
2022-10-09T01:24:52.418Z,6.50
2022-10-09T01:27:22.126Z,6.60
2022-10-09T01:29:50.522Z,6.60
2022-10-09T01:32:19.177Z,6.70
2022-10-09T01:34:46.688Z,6.70
2022-10-09T01:37:17.767Z,6.70
2022-10-09T01:39:45.724Z,6.80
2022-10-09T01:42:13.898Z,6.80
2022-10-09T01:44:40.619Z,6.90
2022-10-09T01:47:09.724Z,6.90
2022-10-09T01:49:36.392Z,6.90
2022-10-09T01:52:16.106Z,7.00
2022-10-09T01:54:49.754Z,7.00
2022-10-09T01:57:18.887Z,7.10
2022-10-09T01:59:47.525Z,7.10
2022-10-09T02:02:14.642Z,7.10
2022-10-09T02:04:42.270Z,7.10
2022-10-09T02:07:09.864Z,7.20
2022-10-09T02:09:38.058Z,7.20
2022-10-09T02:12:06.790Z,7.20
2022-10-09T02:14:34.062Z,7.20
2022-10-09T02:17:17.108Z,7.20
2022-10-09T02:19:56.749Z,7.20
2022-10-09T02:22:25.955Z,7.20
2022-10-09T02:24:52.938Z,7.20
2022-10-09T02:27:21.248Z,7.20
2022-10-09T02:29:48.581Z,7.10
2022-10-09T02:32:16.062Z,7.00
2022-10-09T02:34:42.751Z,7.00
2022-10-09T02:37:09.555Z,7.00
2022-10-09T02:39:36.844Z,6.90
2022-10-09T02:42:04.271Z,6.80
2022-10-09T02:44:30.935Z,6.80
2022-10-09T02:46:57.597Z,6.70
2022-10-09T02:49:24.318Z,6.60
2022-10-09T02:51:51.119Z,6.50
2022-10-09T02:54:17.730Z,6.40
2022-10-09T02:56:44.627Z,6.30
2022-10-09T02:59:11.329Z,6.20
2022-10-09T03:01:38.054Z,6.10
2022-10-09T03:04:05.152Z,6.00
2022-10-09T03:06:32.092Z,5.80
2022-10-09T03:08:58.917Z,5.80
2022-10-09T03:11:26.287Z,5.70
2022-10-09T03:13:54.397Z,5.70
2022-10-09T03:16:22.887Z,5.70
2022-10-09T03:18:50.155Z,5.60
2022-10-09T03:21:20.866Z,5.60
2022-10-09T03:23:47.880Z,5.60
2022-10-09T03:26:16.893Z,5.60
2022-10-09T03:28:44.736Z,5.60
2022-10-09T03:31:27.395Z,5.60
2022-10-09T03:33:58.615Z,5.60
2022-10-09T03:36:25.349Z,5.60
2022-10-09T03:38:52.270Z,5.70
2022-10-09T03:41:18.967Z,5.70
2022-10-09T03:43:45.626Z,5.70
2022-10-09T03:46:12.427Z,5.70
2022-10-09T03:48:39.311Z,5.70
2022-10-09T03:51:06.196Z,5.70
2022-10-09T03:53:34.383Z,5.60
2022-10-09T03:56:01.137Z,5.60
2022-10-09T03:58:27.862Z,5.50
2022-10-09T04:00:57.701Z,5.40
2022-10-09T04:03:24.842Z,5.40
2022-10-09T04:05:51.492Z,5.30
2022-10-09T04:08:18.156Z,5.30
2022-10-09T04:10:45.031Z,5.20
2022-10-09T04:13:11.853Z,5.20
2022-10-09T04:15:38.564Z,5.10
2022-10-09T04:18:05.404Z,5.10
2022-10-09T04:20:32.244Z,5.10
2022-10-09T04:22:59.474Z,5.00
2022-10-09T04:25:26.190Z,5.00
2022-10-09T04:27:53.957Z,4.90
2022-10-09T04:30:21.007Z,4.90
2022-10-09T04:32:48.663Z,4.90
2022-10-09T04:35:17.006Z,4.90
2022-10-09T04:37:43.759Z,4.80
2022-10-09T04:40:10.508Z,4.80
2022-10-09T04:42:37.410Z,4.70
2022-10-09T04:45:04.620Z,4.70
2022-10-09T04:47:31.405Z,4.70
2022-10-09T04:50:02.317Z,4.70
2022-10-09T04:52:30.419Z,4.70
2022-10-09T04:54:57.042Z,4.70
2022-10-09T04:57:23.851Z,4.60
2022-10-09T04:59:50.713Z,4.60
2022-10-09T05:02:17.601Z,4.60
2022-10-09T05:04:46.200Z,4.50
2022-10-09T05:07:13.008Z,4.50
2022-10-09T05:09:39.766Z,4.50
2022-10-09T05:12:06.963Z,4.50
2022-10-09T05:14:33.599Z,4.40
2022-10-09T05:17:23.137Z,4.50
2022-10-09T05:19:50.320Z,4.50
2022-10-09T05:22:17.165Z,4.50
2022-10-09T05:24:43.800Z,4.60
2022-10-09T05:27:10.535Z,4.70
2022-10-09T05:29:37.434Z,4.70
2022-10-09T05:32:04.483Z,4.80
2022-10-09T05:34:31.235Z,4.80
2022-10-09T05:36:58.002Z,4.80
2022-10-09T05:39:24.718Z,4.90
2022-10-09T05:41:51.370Z,4.90
2022-10-09T05:44:18.011Z,4.90
2022-10-09T05:46:44.645Z,4.90
2022-10-09T05:49:12.180Z,4.90
2022-10-09T05:51:39.754Z,4.90
2022-10-09T05:54:06.835Z,4.90
2022-10-09T05:56:34.433Z,4.90
2022-10-09T05:59:02.502Z,4.90
2022-10-09T06:01:31.324Z,4.80
2022-10-09T06:03:58.708Z,4.80
2022-10-09T06:06:29.614Z,4.70
2022-10-09T06:08:56.879Z,4.70
2022-10-09T06:11:23.550Z,4.80
2022-10-09T06:13:51.092Z,4.80
2022-10-09T06:16:18.268Z,4.80
2022-10-09T06:18:49.708Z,4.80
2022-10-09T06:21:16.822Z,4.90
2022-10-09T06:23:43.478Z,4.90
2022-10-09T06:26:12.217Z,4.90
2022-10-09T06:28:39.457Z,5.00
2022-10-09T06:31:14.066Z,5.00
2022-10-09T06:33:41.433Z,5.10
2022-10-09T06:36:12.272Z,5.10
2022-10-09T06:38:39.383Z,5.20
2022-10-09T06:41:16.383Z,5.40
2022-10-09T06:43:47.979Z,5.50
2022-10-09T06:46:14.838Z,5.70
2022-10-09T06:48:41.615Z,6.00
2022-10-09T06:51:09.514Z,6.30
2022-10-09T06:53:37.070Z,6.50
2022-10-09T06:56:04.152Z,6.70
2022-10-09T06:58:30.943Z,7.00
2022-10-09T07:01:03.923Z,7.40
2022-10-09T07:03:31.153Z,8.00
2022-10-09T07:06:07.057Z,8.40
2022-10-09T07:08:33.754Z,8.80
2022-10-09T07:11:00.486Z,8.90
2022-10-09T07:13:29.298Z,8.80
2022-10-09T07:15:56.093Z,8.80
2022-10-09T07:18:22.779Z,8.60
2022-10-09T07:20:49.460Z,8.70
2022-10-09T07:23:16.110Z,8.80
2022-10-09T07:25:42.781Z,9.40
2022-10-09T07:28:09.518Z,11.00
2022-10-09T07:30:39.516Z,12.70
2022-10-09T07:33:06.262Z,14.50
2022-10-09T07:35:32.947Z,16.30
2022-10-09T07:37:59.663Z,18.00
2022-10-09T07:40:26.487Z,19.60
2022-10-09T07:42:54.460Z,21.00
2022-10-09T07:45:21.192Z,22.30
2022-10-09T07:47:47.919Z,23.40
2022-10-09T07:50:14.657Z,24.30
2022-10-09T07:52:41.313Z,25.00
2022-10-09T07:55:08.035Z,25.40
2022-10-09T07:57:34.735Z,26.10
2022-10-09T08:00:01.545Z,26.60
2022-10-09T08:02:28.343Z,26.70
2022-10-09T08:04:55.093Z,26.40
2022-10-09T08:07:21.871Z,25.60
2022-10-09T08:09:48.570Z,24.60
2022-10-09T08:12:15.575Z,23.80
2022-10-09T08:14:42.222Z,23.00
2022-10-09T08:17:08.902Z,22.40
2022-10-09T08:19:35.545Z,21.60
2022-10-09T08:22:03.614Z,20.90
2022-10-09T08:24:30.535Z,20.30
2022-10-09T08:26:57.337Z,19.80
2022-10-09T08:29:24.246Z,19.50
2022-10-09T08:31:52.032Z,19.20
2022-10-09T08:34:18.681Z,19.00
2022-10-09T08:36:45.415Z,18.80
2022-10-09T08:39:12.087Z,18.60
2022-10-09T08:41:49.078Z,18.60
2022-10-09T08:44:21.955Z,18.60
2022-10-09T08:46:48.595Z,19.00
2022-10-09T08:49:38.646Z,19.70
2022-10-09T08:52:14.751Z,20.40
2022-10-09T08:54:41.637Z,20.90
2022-10-09T08:57:13.411Z,21.30
2022-10-09T08:59:40.418Z,21.70
2022-10-09T09:02:07.207Z,22.10
2022-10-09T09:04:34.136Z,22.50
2022-10-09T09:07:10.138Z,22.50
2022-10-09T09:09:49.884Z,22.20
2022-10-09T09:12:25.696Z,22.10
2022-10-09T09:14:52.480Z,22.20
2022-10-09T09:17:19.248Z,22.40
2022-10-09T09:19:50.766Z,22.30
2022-10-09T09:22:17.639Z,22.00
2022-10-09T09:24:47.186Z,21.80
2022-10-09T09:27:16.676Z,21.70
2022-10-09T09:29:44.778Z,21.60
2022-10-09T09:32:16.259Z,21.70
2022-10-09T09:34:43.150Z,22.30
2022-10-09T09:37:13.510Z,22.80
2022-10-09T09:42:27.536Z,22.20
2022-10-09T09:45:02.987Z,21.80
2022-10-09T09:47:41.221Z,21.90
2022-10-09T09:50:18.440Z,22.10
2022-10-09T09:52:50.532Z,22.40
2022-10-09T09:55:28.502Z,22.90
2022-10-09T09:58:21.460Z,23.30
2022-10-09T10:00:55.796Z,23.50
2022-10-09T10:03:22.702Z,23.90
2022-10-09T10:05:49.484Z,24.20
2022-10-09T10:08:36.582Z,24.70
2022-10-09T10:11:06.613Z,25.20
2022-10-09T10:13:38.208Z,26.00
2022-10-09T10:16:06.128Z,26.40
2022-10-09T10:18:40.424Z,26.60
2022-10-09T10:21:17.764Z,26.70
2022-10-09T10:24:05.215Z,27.20
2022-10-09T10:26:41.473Z,27.40
2022-10-09T10:29:19.027Z,27.70
2022-10-09T10:32:04.674Z,28.20
2022-10-09T10:34:35.423Z,28.40
2022-10-09T10:37:14.494Z,28.40
2022-10-09T10:39:50.306Z,28.60
2022-10-09T10:42:21.243Z,28.80
2022-10-09T10:45:00.717Z,29.20
2022-10-09T10:47:30.620Z,29.20
2022-10-09T10:49:57.705Z,29.50
2022-10-09T10:52:30.511Z,29.80
2022-10-09T10:55:19.210Z,29.60
2022-10-09T10:57:49.120Z,28.60
2022-10-09T11:00:17.291Z,27.50
2022-10-09T11:02:56.812Z,26.70
2022-10-09T11:05:25.289Z,25.60
2022-10-09T11:08:10.907Z,24.50
2022-10-09T11:11:00.745Z,23.80
2022-10-09T11:13:34.926Z,23.50
2022-10-09T11:16:04.729Z,24.30
2022-10-09T11:18:31.438Z,25.30
2022-10-09T11:21:13.436Z,26.10
2022-10-09T11:23:40.576Z,27.10
2022-10-09T11:26:07.413Z,27.70
2022-10-09T11:28:45.334Z,27.90
2022-10-09T11:31:19.639Z,27.30
2022-10-09T11:33:52.019Z,26.60
2022-10-09T11:36:22.849Z,26.10
2022-10-09T11:38:53.413Z,25.40
2022-10-09T11:41:20.211Z,24.40
2022-10-09T11:43:52.918Z,23.50
2022-10-09T11:46:40.837Z,22.60
2022-10-09T11:49:18.146Z,21.90
2022-10-09T11:52:05.167Z,21.30
2022-10-09T11:54:32.995Z,20.80
2022-10-09T11:57:01.145Z,20.30
2022-10-09T11:59:32.062Z,20.00
2022-10-09T12:01:59.316Z,19.60
2022-10-09T12:04:53.469Z,19.30
2022-10-09T12:07:46.105Z,19.10
2022-10-09T12:10:31.529Z,19.00
2022-10-09T12:13:05.824Z,18.90
2022-10-09T12:15:35.744Z,18.80
2022-10-09T12:18:12.841Z,18.70
2022-10-09T12:20:40.334Z,18.60
2022-10-09T12:23:25.885Z,18.50
2022-10-09T12:25:54.925Z,18.40
2022-10-09T12:28:27.860Z,18.30
2022-10-09T12:30:55.344Z,18.20
2022-10-09T12:33:43.718Z,18.10
2022-10-09T12:36:23.881Z,18.10
2022-10-09T12:38:51.202Z,18.10
2022-10-09T12:41:21.876Z,18.10
2022-10-09T12:43:52.595Z,18.00
2022-10-09T12:46:39.722Z,18.00
2022-10-09T12:49:16.973Z,18.00
2022-10-09T12:51:52.441Z,18.00
2022-10-09T12:54:22.452Z,18.00
2022-10-09T12:56:49.423Z,18.00
2022-10-09T12:59:16.707Z,18.00
2022-10-09T13:01:44.272Z,18.00
2022-10-09T13:04:28.418Z,17.90
2022-10-09T13:06:55.309Z,17.90
2022-10-09T13:09:32.601Z,17.80
2022-10-09T13:12:07.873Z,17.80
2022-10-09T13:14:42.264Z,17.80
2022-10-09T13:17:27.557Z,17.80
2022-10-09T13:19:55.240Z,17.80
2022-10-09T13:22:26.049Z,17.80
2022-10-09T13:24:54.128Z,17.80
2022-10-09T13:27:24.934Z,17.90
2022-10-09T13:29:51.955Z,17.90
2022-10-09T13:32:19.355Z,17.90
2022-10-09T13:34:47.166Z,17.90
2022-10-09T13:37:14.783Z,17.90
2022-10-09T13:39:41.531Z,17.90
2022-10-09T13:42:10.164Z,18.00
2022-10-09T13:44:37.017Z,18.00
2022-10-09T13:47:03.739Z,18.10
2022-10-09T13:49:30.383Z,18.00
2022-10-09T13:52:02.053Z,17.90
2022-10-09T13:54:29.119Z,17.70
2022-10-09T13:56:55.841Z,17.60
2022-10-09T13:59:24.552Z,17.60
2022-10-09T14:01:51.813Z,17.50
2022-10-09T14:04:18.542Z,17.50
2022-10-09T14:06:45.241Z,17.50
2022-10-09T14:09:12.183Z,17.50
2022-10-09T14:11:38.883Z,17.50
2022-10-09T14:14:05.782Z,17.40
2022-10-09T14:16:32.545Z,17.40
2022-10-09T14:19:00.824Z,17.40
2022-10-09T14:21:28.155Z,17.40
2022-10-09T14:23:58.775Z,17.40
2022-10-09T14:26:26.408Z,17.40
2022-10-09T14:28:53.616Z,17.40
2022-10-09T14:31:21.180Z,17.40
2022-10-09T14:33:48.756Z,17.30
2022-10-09T14:36:18.575Z,17.40
2022-10-09T14:38:45.666Z,17.40
2022-10-09T14:41:14.000Z,17.40
2022-10-09T14:43:40.773Z,17.30
2022-10-09T14:46:08.921Z,17.30
2022-10-09T14:48:35.964Z,17.30
2022-10-09T14:51:04.042Z,17.30
2022-10-09T14:53:31.025Z,17.30
2022-10-09T14:56:04.341Z,17.20
2022-10-09T14:58:31.458Z,17.30
2022-10-09T15:00:58.402Z,17.20
2022-10-09T15:03:25.646Z,17.20
2022-10-09T15:05:52.381Z,17.20
2022-10-09T15:08:19.107Z,17.10
2022-10-09T15:10:45.805Z,17.10
2022-10-09T15:13:12.474Z,17.10
2022-10-09T15:15:39.168Z,17.10
2022-10-09T15:18:05.915Z,17.10
2022-10-09T15:20:33.000Z,17.00
2022-10-09T15:23:00.018Z,17.00
2022-10-09T15:25:31.437Z,17.00
2022-10-09T15:27:59.217Z,17.00
2022-10-09T15:30:26.303Z,17.00
2022-10-09T15:32:53.101Z,16.90
2022-10-09T15:35:20.152Z,16.90
2022-10-09T15:37:48.617Z,16.90
2022-10-09T15:40:17.199Z,16.80
2022-10-09T15:42:44.672Z,16.70
2022-10-09T15:45:11.393Z,16.70
2022-10-09T15:47:50.521Z,16.60
2022-10-09T15:50:18.053Z,16.50
2022-10-09T15:52:44.790Z,16.50
2022-10-09T15:55:11.496Z,16.40
2022-10-09T15:57:38.226Z,16.30
2022-10-09T16:00:05.186Z,16.20
2022-10-09T16:02:31.865Z,16.10
2022-10-09T16:04:58.544Z,16.00
2022-10-09T16:07:25.859Z,15.90
2022-10-09T16:09:52.537Z,15.90
2022-10-09T16:12:19.294Z,15.80
2022-10-09T16:14:46.177Z,15.70
2022-10-09T16:17:12.876Z,15.60
2022-10-09T16:19:39.684Z,15.50
2022-10-09T16:22:11.791Z,15.40
2022-10-09T16:24:38.803Z,15.30
2022-10-09T16:27:05.479Z,15.20
2022-10-09T16:29:32.202Z,15.10
2022-10-09T16:31:58.902Z,15.00
2022-10-09T16:34:26.070Z,14.90
2022-10-09T16:36:53.174Z,14.80
2022-10-09T16:39:20.095Z,14.70
2022-10-09T16:41:46.742Z,14.60
2022-10-09T16:44:14.179Z,14.50
2022-10-09T16:46:40.952Z,14.40
2022-10-09T16:49:13.473Z,14.30
2022-10-09T16:51:40.140Z,14.20
2022-10-09T16:54:06.809Z,14.10
2022-10-09T16:56:35.095Z,14.00
2022-10-09T16:59:03.819Z,13.90
2022-10-09T17:01:30.859Z,13.80
2022-10-09T17:03:58.436Z,13.80
2022-10-09T17:06:25.482Z,13.70
2022-10-09T17:08:53.097Z,13.50
2022-10-09T17:11:19.955Z,13.40
2022-10-09T17:13:47.308Z,13.20
2022-10-09T17:16:18.310Z,13.10
2022-10-09T17:18:46.052Z,12.90
2022-10-09T17:21:13.150Z,12.80
2022-10-09T17:23:39.928Z,12.70
2022-10-09T17:26:07.765Z,12.60
2022-10-09T17:28:34.947Z,12.40
2022-10-09T17:31:02.471Z,12.30
2022-10-09T17:33:29.398Z,12.10
2022-10-09T17:35:56.240Z,12.00
2022-10-09T17:38:23.427Z,11.90
2022-10-09T17:40:50.090Z,11.80
2022-10-09T17:43:16.738Z,11.70
2022-10-09T17:45:43.582Z,11.60
2022-10-09T17:48:10.630Z,11.50
2022-10-09T17:50:40.423Z,11.40
2022-10-09T17:53:07.507Z,11.30
2022-10-09T17:55:36.987Z,11.20
2022-10-09T17:58:03.646Z,11.10
2022-10-09T18:00:30.400Z,11.00
2022-10-09T18:02:57.291Z,10.80
2022-10-09T18:05:24.022Z,10.80
2022-10-09T18:07:58.314Z,10.70
2022-10-09T18:10:24.977Z,10.60
2022-10-09T18:12:51.685Z,10.50
2022-10-09T18:15:19.568Z,10.40
2022-10-09T18:17:46.461Z,10.40
2022-10-09T18:20:13.257Z,10.30
2022-10-09T18:22:39.908Z,10.40
2022-10-09T18:25:06.958Z,10.40
2022-10-09T18:27:36.459Z,10.40
2022-10-09T18:30:03.721Z,10.40
2022-10-09T18:32:30.572Z,10.40
2022-10-09T18:34:57.219Z,10.30
2022-10-09T18:37:23.985Z,10.20
2022-10-09T18:39:50.715Z,10.10
2022-10-09T18:42:17.507Z,10.00
2022-10-09T18:44:44.209Z,9.90
2022-10-09T18:47:14.561Z,9.80
2022-10-09T18:49:43.347Z,9.70
2022-10-09T18:52:11.600Z,9.60
2022-10-09T18:54:43.085Z,9.60
2022-10-09T18:57:10.024Z,9.40
2022-10-09T18:59:37.903Z,9.30
2022-10-09T19:02:04.830Z,9.20
2022-10-09T19:04:31.646Z,9.20
2022-10-09T19:06:58.339Z,9.10
2022-10-09T19:09:25.328Z,9.10
2022-10-09T19:11:52.624Z,9.10
2022-10-09T19:14:19.399Z,9.10
2022-10-09T19:16:46.185Z,9.00
2022-10-09T19:19:12.981Z,8.90
2022-10-09T19:21:43.895Z,8.90
2022-10-09T19:24:11.961Z,8.80
2022-10-09T19:26:39.319Z,8.80
2022-10-09T19:29:06.814Z,8.70
2022-10-09T19:31:34.407Z,8.70
2022-10-09T19:34:01.705Z,8.60
2022-10-09T19:36:28.429Z,8.50
2022-10-09T19:38:55.160Z,8.40
2022-10-09T19:41:21.876Z,8.40
2022-10-09T19:43:48.556Z,8.30
2022-10-09T19:46:17.523Z,8.20
2022-10-09T19:48:44.689Z,8.10
2022-10-09T19:51:13.144Z,8.10
2022-10-09T19:53:39.992Z,8.00
2022-10-09T19:56:10.687Z,8.00
2022-10-09T19:58:41.103Z,7.90
2022-10-09T20:01:09.635Z,7.90
2022-10-09T20:03:36.414Z,7.90
2022-10-09T20:06:03.868Z,7.90
2022-10-09T20:08:30.942Z,7.90
2022-10-09T20:10:59.671Z,7.90
2022-10-09T20:13:26.296Z,8.00
2022-10-09T20:15:52.909Z,8.10
2022-10-09T20:18:19.686Z,8.30
2022-10-09T20:20:47.461Z,8.50
2022-10-09T20:23:14.163Z,8.50
2022-10-09T20:25:40.927Z,8.60
2022-10-09T20:28:07.600Z,8.50
2022-10-09T20:30:34.416Z,8.40
2022-10-09T20:33:01.440Z,8.30
2022-10-09T20:35:28.498Z,8.30
2022-10-09T20:37:55.168Z,8.30
2022-10-09T20:40:21.967Z,8.30
2022-10-09T20:42:48.916Z,8.30
2022-10-09T20:45:15.893Z,8.30
2022-10-09T20:47:42.554Z,8.30
2022-10-09T20:50:09.718Z,8.20
2022-10-09T20:52:36.579Z,8.20
2022-10-09T20:55:03.360Z,8.20
2022-10-09T20:57:30.011Z,8.20
2022-10-09T20:59:57.091Z,8.20
2022-10-09T21:02:24.584Z,8.20
2022-10-09T21:04:51.248Z,8.20
2022-10-09T21:07:24.334Z,8.20
2022-10-09T21:09:52.812Z,8.20
2022-10-09T21:12:26.325Z,8.20
2022-10-09T21:14:55.455Z,8.30
2022-10-09T21:17:28.366Z,8.40
2022-10-09T21:19:56.464Z,8.50
2022-10-09T21:22:30.927Z,8.50
2022-10-09T21:24:57.642Z,8.50
2022-10-09T21:27:32.381Z,8.50
2022-10-09T21:30:06.233Z,8.50
2022-10-09T21:32:32.908Z,8.50
2022-10-09T21:34:59.576Z,8.60
2022-10-09T21:37:26.320Z,8.60
2022-10-09T21:39:53.290Z,8.70
2022-10-09T21:42:19.901Z,8.70
2022-10-09T21:44:46.721Z,8.60
2022-10-09T21:47:16.492Z,8.60
2022-10-09T21:49:43.100Z,8.60
2022-10-09T21:52:10.656Z,8.60
2022-10-09T21:54:37.484Z,8.60
2022-10-09T21:57:04.131Z,8.70
2022-10-09T21:59:30.879Z,8.70
2022-10-09T22:01:57.674Z,8.70
2022-10-09T22:04:24.456Z,8.70
2022-10-09T22:06:51.174Z,8.80
2022-10-09T22:09:17.874Z,8.90
2022-10-09T22:11:44.959Z,9.00
2022-10-09T22:14:11.668Z,9.00
2022-10-09T22:16:38.621Z,9.10
2022-10-09T22:19:05.242Z,9.20
2022-10-09T22:21:31.920Z,9.30
2022-10-09T22:24:04.066Z,9.40
2022-10-09T22:26:30.849Z,9.50
2022-10-09T22:28:57.613Z,9.50
2022-10-09T22:31:25.365Z,9.50
2022-10-09T22:33:53.177Z,9.40
2022-10-09T22:36:21.528Z,9.40
2022-10-09T22:38:48.231Z,9.50
2022-10-09T22:41:19.265Z,9.50
2022-10-09T22:43:47.169Z,9.60
2022-10-09T22:46:18.480Z,9.70
2022-10-09T22:48:45.346Z,9.70
2022-10-09T22:51:13.499Z,9.80
2022-10-09T22:53:40.264Z,9.80
2022-10-09T22:56:07.842Z,9.90
2022-10-09T22:58:34.570Z,9.90
2022-10-09T23:01:08.751Z,10.00
2022-10-09T23:03:35.471Z,10.00
2022-10-09T23:06:12.804Z,10.10
2022-10-09T23:08:40.554Z,10.10
2022-10-09T23:11:12.860Z,10.10
2022-10-09T23:13:39.843Z,10.10
2022-10-09T23:16:09.624Z,10.10
2022-10-09T23:18:36.714Z,10.10
2022-10-09T23:21:08.249Z,10.20
2022-10-09T23:23:34.983Z,10.20
2022-10-09T23:26:05.868Z,10.30
2022-10-09T23:28:32.773Z,10.30
2022-10-09T23:31:04.479Z,10.40
2022-10-09T23:33:31.452Z,10.40
2022-10-09T23:35:58.542Z,10.50
2022-10-09T23:38:25.637Z,10.50
2022-10-09T23:41:02.885Z,10.60
2022-10-09T23:43:30.732Z,10.60
2022-10-09T23:45:58.408Z,10.70
2022-10-09T23:48:25.445Z,10.70
2022-10-09T23:50:52.371Z,10.80
2022-10-09T23:53:19.927Z,10.80
2022-10-09T23:55:46.856Z,10.80
2022-10-09T23:58:18.429Z,10.80
